sensor_id;sensor_type;location;lat;lon;timestamp;P1;durP1;ratioP1;P2;durP2;ratioP2
20069;SDS011;10195;50.868;4.382;2023-02-28T00:00:26;12.33;;;5.53;;
20069;SDS011;10195;50.868;4.382;2023-02-28T00:02:52;11.97;;;5.33;;
20069;SDS011;10195;50.868;4.382;2023-02-28T00:05:19;13.40;;;5.70;;
20069;SDS011;10195;50.868;4.382;2023-02-28T00:07:46;7.33;;;4.93;;
20069;SDS011;10195;50.868;4.382;2023-02-28T00:10:14;11.43;;;4.50;;
20069;SDS011;10195;50.868;4.382;2023-02-28T00:12:47;10.23;;;5.00;;
20069;SDS011;10195;50.868;4.382;2023-02-28T00:15:13;11.07;;;5.13;;
20069;SDS011;10195;50.868;4.382;2023-02-28T00:17:39;13.37;;;5.10;;
20069;SDS011;10195;50.868;4.382;2023-02-28T00:20:05;6.47;;;4.37;;
20069;SDS011;10195;50.868;4.382;2023-02-28T00:22:37;10.70;;;5.33;;
20069;SDS011;10195;50.868;4.382;2023-02-28T00:25:08;11.93;;;5.40;;
20069;SDS011;10195;50.868;4.382;2023-02-28T00:27:35;8.80;;;5.07;;
20069;SDS011;10195;50.868;4.382;2023-02-28T00:30:02;6.50;;;4.53;;
20069;SDS011;10195;50.868;4.382;2023-02-28T00:32:29;11.33;;;5.50;;
20069;SDS011;10195;50.868;4.382;2023-02-28T00:34:55;8.57;;;5.07;;
20069;SDS011;10195;50.868;4.382;2023-02-28T00:37:21;8.30;;;5.13;;
20069;SDS011;10195;50.868;4.382;2023-02-28T00:39:47;10.20;;;5.77;;
20069;SDS011;10195;50.868;4.382;2023-02-28T00:42:13;10.30;;;5.83;;
20069;SDS011;10195;50.868;4.382;2023-02-28T00:44:38;12.90;;;6.03;;
20069;SDS011;10195;50.868;4.382;2023-02-28T00:47:04;12.87;;;5.70;;
20069;SDS011;10195;50.868;4.382;2023-02-28T00:49:30;13.23;;;5.60;;
20069;SDS011;10195;50.868;4.382;2023-02-28T00:51:55;11.10;;;5.33;;
20069;SDS011;10195;50.868;4.382;2023-02-28T00:54:22;9.93;;;5.73;;
20069;SDS011;10195;50.868;4.382;2023-02-28T00:56:48;8.40;;;4.97;;
20069;SDS011;10195;50.868;4.382;2023-02-28T00:59:14;8.50;;;5.47;;
20069;SDS011;10195;50.868;4.382;2023-02-28T01:01:41;12.50;;;5.70;;
20069;SDS011;10195;50.868;4.382;2023-02-28T01:04:07;8.67;;;5.63;;
20069;SDS011;10195;50.868;4.382;2023-02-28T01:06:33;10.17;;;5.97;;
20069;SDS011;10195;50.868;4.382;2023-02-28T01:08:59;12.57;;;5.77;;
20069;SDS011;10195;50.868;4.382;2023-02-28T01:11:25;10.23;;;5.57;;
20069;SDS011;10195;50.868;4.382;2023-02-28T01:13:51;10.27;;;5.47;;
20069;SDS011;10195;50.868;4.382;2023-02-28T01:16:17;14.83;;;6.07;;
20069;SDS011;10195;50.868;4.382;2023-02-28T01:18:43;9.10;;;5.57;;
20069;SDS011;10195;50.868;4.382;2023-02-28T01:21:13;9.23;;;5.40;;
20069;SDS011;10195;50.868;4.382;2023-02-28T01:23:41;9.20;;;5.10;;
20069;SDS011;10195;50.868;4.382;2023-02-28T01:26:17;12.23;;;5.10;;
20069;SDS011;10195;50.868;4.382;2023-02-28T01:28:48;11.77;;;4.83;;
20069;SDS011;10195;50.868;4.382;2023-02-28T01:31:14;9.80;;;5.47;;
20069;SDS011;10195;50.868;4.382;2023-02-28T01:33:41;12.80;;;5.77;;
20069;SDS011;10195;50.868;4.382;2023-02-28T01:36:08;9.27;;;5.93;;
20069;SDS011;10195;50.868;4.382;2023-02-28T01:38:37;11.50;;;6.10;;
20069;SDS011;10195;50.868;4.382;2023-02-28T01:41:03;7.90;;;5.03;;
20069;SDS011;10195;50.868;4.382;2023-02-28T01:44:55;9.93;;;6.20;;
20069;SDS011;10195;50.868;4.382;2023-02-28T01:46:21;5.93;;;4.07;;
20069;SDS011;10195;50.868;4.382;2023-02-28T01:51:37;12.73;;;6.20;;
20069;SDS011;10195;50.868;4.382;2023-02-28T01:54:09;9.77;;;6.17;;
20069;SDS011;10195;50.868;4.382;2023-02-28T01:56:38;10.80;;;6.03;;
20069;SDS011;10195;50.868;4.382;2023-02-28T01:59:08;8.33;;;5.83;;
20069;SDS011;10195;50.868;4.382;2023-02-28T02:01:35;14.07;;;6.63;;
20069;SDS011;10195;50.868;4.382;2023-02-28T02:04:01;9.03;;;6.27;;
20069;SDS011;10195;50.868;4.382;2023-02-28T02:06:30;10.63;;;6.07;;
20069;SDS011;10195;50.868;4.382;2023-02-28T02:09:09;10.07;;;5.20;;
20069;SDS011;10195;50.868;4.382;2023-02-28T02:11:35;10.47;;;6.33;;
20069;SDS011;10195;50.868;4.382;2023-02-28T02:14:14;10.20;;;6.43;;
20069;SDS011;10195;50.868;4.382;2023-02-28T02:17:14;11.00;;;6.07;;
20069;SDS011;10195;50.868;4.382;2023-02-28T02:23:03;11.20;;;6.87;;
20069;SDS011;10195;50.868;4.382;2023-02-28T02:28:52;9.53;;;6.40;;
20069;SDS011;10195;50.868;4.382;2023-02-28T02:31:30;10.47;;;6.57;;
20069;SDS011;10195;50.868;4.382;2023-02-28T02:36:50;10.30;;;7.50;;
20069;SDS011;10195;50.868;4.382;2023-02-28T02:41:56;15.47;;;7.70;;
20069;SDS011;10195;50.868;4.382;2023-02-28T02:44:39;12.80;;;7.10;;
20069;SDS011;10195;50.868;4.382;2023-02-28T02:47:15;13.33;;;7.00;;
20069;SDS011;10195;50.868;4.382;2023-02-28T02:49:52;13.10;;;7.03;;
20069;SDS011;10195;50.868;4.382;2023-02-28T02:52:22;14.53;;;6.93;;
20069;SDS011;10195;50.868;4.382;2023-02-28T02:54:50;13.10;;;7.23;;
20069;SDS011;10195;50.868;4.382;2023-02-28T02:57:32;12.83;;;8.07;;
20069;SDS011;10195;50.868;4.382;2023-02-28T03:00:03;14.83;;;8.03;;
20069;SDS011;10195;50.868;4.382;2023-02-28T03:02:33;14.53;;;7.57;;
20069;SDS011;10195;50.868;4.382;2023-02-28T03:05:06;14.97;;;7.67;;
20069;SDS011;10195;50.868;4.382;2023-02-28T03:07:39;14.87;;;7.47;;
20069;SDS011;10195;50.868;4.382;2023-02-28T03:10:25;14.63;;;8.00;;
20069;SDS011;10195;50.868;4.382;2023-02-28T03:13:14;13.03;;;7.23;;
20069;SDS011;10195;50.868;4.382;2023-02-28T03:16:07;14.10;;;7.27;;
20069;SDS011;10195;50.868;4.382;2023-02-28T03:21:43;10.13;;;6.10;;
20069;SDS011;10195;50.868;4.382;2023-02-28T03:24:25;14.03;;;8.10;;
20069;SDS011;10195;50.868;4.382;2023-02-28T03:27:07;14.07;;;7.23;;
20069;SDS011;10195;50.868;4.382;2023-02-28T03:29:41;20.40;;;7.80;;
20069;SDS011;10195;50.868;4.382;2023-02-28T03:32:23;17.80;;;8.57;;
20069;SDS011;10195;50.868;4.382;2023-02-28T03:35:09;11.30;;;6.13;;
20069;SDS011;10195;50.868;4.382;2023-02-28T03:37:47;13.50;;;7.17;;
20069;SDS011;10195;50.868;4.382;2023-02-28T03:40:22;11.77;;;4.27;;
20069;SDS011;10195;50.868;4.382;2023-02-28T03:42:53;12.03;;;7.17;;
20069;SDS011;10195;50.868;4.382;2023-02-28T03:45:25;17.10;;;8.33;;
20069;SDS011;10195;50.868;4.382;2023-02-28T03:47:57;15.93;;;7.87;;
20069;SDS011;10195;50.868;4.382;2023-02-28T03:50:44;18.93;;;8.20;;
20069;SDS011;10195;50.868;4.382;2023-02-28T03:53:14;14.90;;;9.03;;
20069;SDS011;10195;50.868;4.382;2023-02-28T03:56:37;14.97;;;8.50;;
20069;SDS011;10195;50.868;4.382;2023-02-28T03:58:57;17.17;;;9.20;;
20069;SDS011;10195;50.868;4.382;2023-02-28T04:01:35;15.00;;;8.40;;
20069;SDS011;10195;50.868;4.382;2023-02-28T04:04:06;15.17;;;8.33;;
20069;SDS011;10195;50.868;4.382;2023-02-28T04:06:33;17.93;;;9.67;;
20069;SDS011;10195;50.868;4.382;2023-02-28T04:09:00;13.53;;;7.10;;
20069;SDS011;10195;50.868;4.382;2023-02-28T04:11:42;16.17;;;9.20;;
20069;SDS011;10195;50.868;4.382;2023-02-28T04:14:16;13.70;;;8.73;;
20069;SDS011;10195;50.868;4.382;2023-02-28T04:16:42;18.80;;;8.90;;
20069;SDS011;10195;50.868;4.382;2023-02-28T04:19:08;15.13;;;8.77;;
20069;SDS011;10195;50.868;4.382;2023-02-28T04:21:40;15.97;;;8.63;;
20069;SDS011;10195;50.868;4.382;2023-02-28T04:24:07;16.90;;;8.67;;
20069;SDS011;10195;50.868;4.382;2023-02-28T04:26:39;14.80;;;9.03;;
20069;SDS011;10195;50.868;4.382;2023-02-28T04:29:06;15.67;;;8.90;;
20069;SDS011;10195;50.868;4.382;2023-02-28T04:31:32;14.50;;;9.37;;
20069;SDS011;10195;50.868;4.382;2023-02-28T04:33:59;19.47;;;9.10;;
20069;SDS011;10195;50.868;4.382;2023-02-28T04:36:25;17.70;;;8.60;;
20069;SDS011;10195;50.868;4.382;2023-02-28T04:38:51;16.03;;;9.90;;
20069;SDS011;10195;50.868;4.382;2023-02-28T04:41:17;13.40;;;9.13;;
20069;SDS011;10195;50.868;4.382;2023-02-28T04:43:43;17.27;;;8.97;;
20069;SDS011;10195;50.868;4.382;2023-02-28T04:46:08;17.97;;;8.90;;
20069;SDS011;10195;50.868;4.382;2023-02-28T04:48:36;15.20;;;8.63;;
20069;SDS011;10195;50.868;4.382;2023-02-28T04:51:07;19.50;;;9.33;;
20069;SDS011;10195;50.868;4.382;2023-02-28T04:53:35;6.63;;;2.90;;
20069;SDS011;10195;50.868;4.382;2023-02-28T04:56:02;15.13;;;8.63;;
20069;SDS011;10195;50.868;4.382;2023-02-28T04:58:28;14.97;;;8.63;;
20069;SDS011;10195;50.868;4.382;2023-02-28T05:00:55;9.87;;;6.13;;
20069;SDS011;10195;50.868;4.382;2023-02-28T05:03:37;18.00;;;8.90;;
20069;SDS011;10195;50.868;4.382;2023-02-28T05:06:07;14.73;;;9.10;;
20069;SDS011;10195;50.868;4.382;2023-02-28T05:08:33;13.83;;;9.23;;
20069;SDS011;10195;50.868;4.382;2023-02-28T05:10:59;14.17;;;7.93;;
20069;SDS011;10195;50.868;4.382;2023-02-28T05:13:26;14.47;;;9.00;;
20069;SDS011;10195;50.868;4.382;2023-02-28T05:15:53;10.90;;;6.30;;
20069;SDS011;10195;50.868;4.382;2023-02-28T05:18:19;17.60;;;9.77;;
20069;SDS011;10195;50.868;4.382;2023-02-28T05:20:44;16.67;;;9.33;;
20069;SDS011;10195;50.868;4.382;2023-02-28T05:23:13;20.77;;;9.03;;
20069;SDS011;10195;50.868;4.382;2023-02-28T05:25:40;15.97;;;8.10;;
20069;SDS011;10195;50.868;4.382;2023-02-28T05:28:07;15.70;;;8.20;;
20069;SDS011;10195;50.868;4.382;2023-02-28T05:30:33;17.50;;;9.30;;
20069;SDS011;10195;50.868;4.382;2023-02-28T05:32:59;15.30;;;8.73;;
20069;SDS011;10195;50.868;4.382;2023-02-28T05:35:25;16.07;;;8.77;;
20069;SDS011;10195;50.868;4.382;2023-02-28T05:37:51;9.60;;;5.77;;
20069;SDS011;10195;50.868;4.382;2023-02-28T05:40:17;15.40;;;8.47;;
20069;SDS011;10195;50.868;4.382;2023-02-28T05:42:45;18.53;;;9.23;;
20069;SDS011;10195;50.868;4.382;2023-02-28T05:45:11;16.50;;;9.40;;
20069;SDS011;10195;50.868;4.382;2023-02-28T05:47:37;17.33;;;8.37;;
20069;SDS011;10195;50.868;4.382;2023-02-28T05:50:03;14.90;;;9.57;;
20069;SDS011;10195;50.868;4.382;2023-02-28T05:52:30;14.17;;;9.10;;
20069;SDS011;10195;50.868;4.382;2023-02-28T05:54:56;15.97;;;9.27;;
20069;SDS011;10195;50.868;4.382;2023-02-28T05:57:22;14.77;;;8.63;;
20069;SDS011;10195;50.868;4.382;2023-02-28T05:59:47;17.03;;;9.07;;
20069;SDS011;10195;50.868;4.382;2023-02-28T06:02:14;17.70;;;8.93;;
20069;SDS011;10195;50.868;4.382;2023-02-28T06:04:41;10.90;;;5.80;;
20069;SDS011;10195;50.868;4.382;2023-02-28T06:07:07;15.57;;;7.80;;
20069;SDS011;10195;50.868;4.382;2023-02-28T06:09:33;16.57;;;8.07;;
20069;SDS011;10195;50.868;4.382;2023-02-28T06:12:00;19.27;;;9.77;;
20069;SDS011;10195;50.868;4.382;2023-02-28T06:14:28;10.37;;;5.33;;
20069;SDS011;10195;50.868;4.382;2023-02-28T06:16:56;13.07;;;6.53;;
20069;SDS011;10195;50.868;4.382;2023-02-28T06:19:22;17.83;;;8.90;;
20069;SDS011;10195;50.868;4.382;2023-02-28T06:21:50;16.37;;;8.50;;
20069;SDS011;10195;50.868;4.382;2023-02-28T06:24:17;14.20;;;8.77;;
20069;SDS011;10195;50.868;4.382;2023-02-28T06:26:47;14.83;;;8.63;;
20069;SDS011;10195;50.868;4.382;2023-02-28T06:29:13;15.03;;;7.80;;
20069;SDS011;10195;50.868;4.382;2023-02-28T06:31:42;14.63;;;7.90;;
20069;SDS011;10195;50.868;4.382;2023-02-28T06:34:09;5.67;;;3.80;;
20069;SDS011;10195;50.868;4.382;2023-02-28T06:36:36;10.70;;;5.57;;
20069;SDS011;10195;50.868;4.382;2023-02-28T06:39:06;14.33;;;8.30;;
20069;SDS011;10195;50.868;4.382;2023-02-28T06:41:33;15.93;;;9.07;;
20069;SDS011;10195;50.868;4.382;2023-02-28T06:44:03;14.53;;;7.90;;
20069;SDS011;10195;50.868;4.382;2023-02-28T06:46:30;16.60;;;4.90;;
20069;SDS011;10195;50.868;4.382;2023-02-28T06:48:57;24.97;;;9.00;;
20069;SDS011;10195;50.868;4.382;2023-02-28T06:51:22;17.07;;;8.70;;
20069;SDS011;10195;50.868;4.382;2023-02-28T06:53:49;15.73;;;8.70;;
20069;SDS011;10195;50.868;4.382;2023-02-28T06:56:15;12.00;;;6.90;;
20069;SDS011;10195;50.868;4.382;2023-02-28T06:58:45;24.07;;;8.07;;
20069;SDS011;10195;50.868;4.382;2023-02-28T07:01:15;12.93;;;6.67;;
20069;SDS011;10195;50.868;4.382;2023-02-28T07:03:41;16.73;;;7.03;;
20069;SDS011;10195;50.868;4.382;2023-02-28T07:06:07;22.63;;;7.23;;
20069;SDS011;10195;50.868;4.382;2023-02-28T07:08:33;11.27;;;7.23;;
20069;SDS011;10195;50.868;4.382;2023-02-28T07:11:00;13.70;;;6.37;;
20069;SDS011;10195;50.868;4.382;2023-02-28T07:13:25;12.17;;;6.73;;
20069;SDS011;10195;50.868;4.382;2023-02-28T07:16:02;13.03;;;7.17;;
20069;SDS011;10195;50.868;4.382;2023-02-28T07:18:29;18.63;;;6.93;;
20069;SDS011;10195;50.868;4.382;2023-02-28T07:20:55;18.60;;;8.07;;
20069;SDS011;10195;50.868;4.382;2023-02-28T07:23:21;12.33;;;7.70;;
20069;SDS011;10195;50.868;4.382;2023-02-28T07:25:47;11.97;;;7.50;;
20069;SDS011;10195;50.868;4.382;2023-02-28T07:28:14;12.73;;;7.07;;
20069;SDS011;10195;50.868;4.382;2023-02-28T07:30:40;18.53;;;7.70;;
20069;SDS011;10195;50.868;4.382;2023-02-28T07:33:06;14.70;;;8.57;;
20069;SDS011;10195;50.868;4.382;2023-02-28T07:35:31;10.60;;;6.50;;
20069;SDS011;10195;50.868;4.382;2023-02-28T07:37:57;12.87;;;7.00;;
20069;SDS011;10195;50.868;4.382;2023-02-28T07:40:23;10.30;;;6.40;;
20069;SDS011;10195;50.868;4.382;2023-02-28T07:42:49;7.07;;;4.53;;
20069;SDS011;10195;50.868;4.382;2023-02-28T07:45:15;3.93;;;2.97;;
20069;SDS011;10195;50.868;4.382;2023-02-28T07:47:42;11.77;;;6.57;;
20069;SDS011;10195;50.868;4.382;2023-02-28T07:50:10;14.17;;;6.13;;
20069;SDS011;10195;50.868;4.382;2023-02-28T07:52:39;7.10;;;4.67;;
20069;SDS011;10195;50.868;4.382;2023-02-28T07:55:06;6.43;;;2.53;;
20069;SDS011;10195;50.868;4.382;2023-02-28T07:57:33;12.80;;;5.60;;
20069;SDS011;10195;50.868;4.382;2023-02-28T07:59:58;10.87;;;6.53;;
20069;SDS011;10195;50.868;4.382;2023-02-28T08:02:24;10.70;;;6.30;;
20069;SDS011;10195;50.868;4.382;2023-02-28T08:04:50;10.70;;;6.13;;
20069;SDS011;10195;50.868;4.382;2023-02-28T08:07:16;8.77;;;5.00;;
20069;SDS011;10195;50.868;4.382;2023-02-28T08:09:43;9.57;;;5.03;;
20069;SDS011;10195;50.868;4.382;2023-02-28T08:12:09;8.80;;;4.87;;
20069;SDS011;10195;50.868;4.382;2023-02-28T08:14:36;6.83;;;4.87;;
20069;SDS011;10195;50.868;4.382;2023-02-28T08:17:02;10.53;;;4.37;;
20069;SDS011;10195;50.868;4.382;2023-02-28T08:19:29;9.10;;;4.03;;
20069;SDS011;10195;50.868;4.382;2023-02-28T08:21:55;8.30;;;4.80;;
20069;SDS011;10195;50.868;4.382;2023-02-28T08:24:21;7.23;;;4.67;;
20069;SDS011;10195;50.868;4.382;2023-02-28T08:26:47;8.03;;;4.67;;
20069;SDS011;10195;50.868;4.382;2023-02-28T08:29:13;8.60;;;4.30;;
20069;SDS011;10195;50.868;4.382;2023-02-28T08:31:39;5.63;;;3.83;;
20069;SDS011;10195;50.868;4.382;2023-02-28T08:34:08;7.27;;;4.07;;
20069;SDS011;10195;50.868;4.382;2023-02-28T08:36:36;8.93;;;4.03;;
20069;SDS011;10195;50.868;4.382;2023-02-28T08:39:02;4.73;;;3.77;;
20069;SDS011;10195;50.868;4.382;2023-02-28T08:41:28;3.93;;;2.97;;
20069;SDS011;10195;50.868;4.382;2023-02-28T08:43:54;7.23;;;3.30;;
20069;SDS011;10195;50.868;4.382;2023-02-28T08:46:20;6.03;;;3.60;;
20069;SDS011;10195;50.868;4.382;2023-02-28T08:48:45;7.10;;;4.23;;
20069;SDS011;10195;50.868;4.382;2023-02-28T08:51:16;6.40;;;3.50;;
20069;SDS011;10195;50.868;4.382;2023-02-28T08:53:43;8.37;;;4.07;;
20069;SDS011;10195;50.868;4.382;2023-02-28T08:56:11;13.53;;;3.97;;
20069;SDS011;10195;50.868;4.382;2023-02-28T08:58:38;4.80;;;3.40;;
20069;SDS011;10195;50.868;4.382;2023-02-28T09:01:23;6.27;;;3.40;;
20069;SDS011;10195;50.868;4.382;2023-02-28T09:03:52;8.50;;;3.23;;
20069;SDS011;10195;50.868;4.382;2023-02-28T09:06:19;7.47;;;3.70;;
20069;SDS011;10195;50.868;4.382;2023-02-28T09:08:46;7.17;;;3.60;;
20069;SDS011;10195;50.868;4.382;2023-02-28T09:11:12;5.47;;;3.40;;
20069;SDS011;10195;50.868;4.382;2023-02-28T09:13:38;6.13;;;3.37;;
20069;SDS011;10195;50.868;4.382;2023-02-28T09:16:05;11.63;;;3.10;;
20069;SDS011;10195;50.868;4.382;2023-02-28T09:18:33;5.87;;;3.50;;
20069;SDS011;10195;50.868;4.382;2023-02-28T09:21:06;5.07;;;3.00;;
20069;SDS011;10195;50.868;4.382;2023-02-28T09:23:33;6.10;;;3.60;;
20069;SDS011;10195;50.868;4.382;2023-02-28T09:26:00;6.33;;;3.13;;
20069;SDS011;10195;50.868;4.382;2023-02-28T09:28:25;7.63;;;3.20;;
20069;SDS011;10195;50.868;4.382;2023-02-28T09:30:52;6.50;;;3.53;;
20069;SDS011;10195;50.868;4.382;2023-02-28T09:33:19;8.17;;;3.90;;
20069;SDS011;10195;50.868;4.382;2023-02-28T09:35:46;3.90;;;3.10;;
20069;SDS011;10195;50.868;4.382;2023-02-28T09:38:13;4.73;;;3.10;;
20069;SDS011;10195;50.868;4.382;2023-02-28T09:40:49;8.07;;;3.10;;
20069;SDS011;10195;50.868;4.382;2023-02-28T09:43:16;3.70;;;2.93;;
20069;SDS011;10195;50.868;4.382;2023-02-28T09:48:44;5.13;;;2.70;;
20069;SDS011;10195;50.868;4.382;2023-02-28T09:54:00;5.87;;;2.90;;
20069;SDS011;10195;50.868;4.382;2023-02-28T09:56:32;6.07;;;2.70;;
20069;SDS011;10195;50.868;4.382;2023-02-28T09:59:12;6.97;;;2.90;;
20069;SDS011;10195;50.868;4.382;2023-02-28T10:10:24;6.17;;;3.47;;
20069;SDS011;10195;50.868;4.382;2023-02-28T10:12:54;5.40;;;2.80;;
20069;SDS011;10195;50.868;4.382;2023-02-28T10:15:24;4.20;;;2.83;;
20069;SDS011;10195;50.868;4.382;2023-02-28T10:17:56;4.23;;;2.60;;
20069;SDS011;10195;50.868;4.382;2023-02-28T10:20:25;5.07;;;2.70;;
20069;SDS011;10195;50.868;4.382;2023-02-28T10:25:32;6.50;;;2.90;;
20069;SDS011;10195;50.868;4.382;2023-02-28T10:28:14;5.03;;;3.23;;
20069;SDS011;10195;50.868;4.382;2023-02-28T10:30:45;2.77;;;2.13;;
20069;SDS011;10195;50.868;4.382;2023-02-28T10:33:32;4.83;;;2.20;;
20069;SDS011;10195;50.868;4.382;2023-02-28T10:35:59;2.87;;;2.00;;
20069;SDS011;10195;50.868;4.382;2023-02-28T10:38:27;3.07;;;1.90;;
20069;SDS011;10195;50.868;4.382;2023-02-28T10:41:05;3.63;;;2.20;;
20069;SDS011;10195;50.868;4.382;2023-02-28T10:43:30;4.40;;;2.20;;
20069;SDS011;10195;50.868;4.382;2023-02-28T10:46:03;4.87;;;2.30;;
20069;SDS011;10195;50.868;4.382;2023-02-28T10:48:36;3.40;;;2.20;;
20069;SDS011;10195;50.868;4.382;2023-02-28T10:51:09;2.53;;;1.90;;
20069;SDS011;10195;50.868;4.382;2023-02-28T11:03:56;3.33;;;1.93;;
20069;SDS011;10195;50.868;4.382;2023-02-28T11:06:23;4.10;;;2.23;;
20069;SDS011;10195;50.868;4.382;2023-02-28T11:08:57;8.03;;;2.20;;
20069;SDS011;10195;50.868;4.382;2023-02-28T11:11:26;4.00;;;2.50;;
20069;SDS011;10195;50.868;4.382;2023-02-28T11:13:58;2.63;;;1.90;;
20069;SDS011;10195;50.868;4.382;2023-02-28T11:16:33;3.33;;;1.97;;
20069;SDS011;10195;50.868;4.382;2023-02-28T11:19:03;6.00;;;2.30;;
20069;SDS011;10195;50.868;4.382;2023-02-28T11:21:35;5.77;;;2.27;;
20069;SDS011;10195;50.868;4.382;2023-02-28T11:24:18;5.80;;;2.30;;
20069;SDS011;10195;50.868;4.382;2023-02-28T11:26:49;3.20;;;2.27;;
20069;SDS011;10195;50.868;4.382;2023-02-28T11:29:23;5.97;;;2.43;;
20069;SDS011;10195;50.868;4.382;2023-02-28T11:34:41;4.60;;;2.33;;
20069;SDS011;10195;50.868;4.382;2023-02-28T11:37:12;3.47;;;2.47;;
20069;SDS011;10195;50.868;4.382;2023-02-28T11:39:40;4.13;;;2.33;;
20069;SDS011;10195;50.868;4.382;2023-02-28T11:48:10;2.53;;;2.23;;
20069;SDS011;10195;50.868;4.382;2023-02-28T11:56:16;3.70;;;2.50;;
20069;SDS011;10195;50.868;4.382;2023-02-28T12:10:09;5.53;;;3.27;;
20069;SDS011;10195;50.868;4.382;2023-02-28T12:21:56;7.30;;;2.90;;
20069;SDS011;10195;50.868;4.382;2023-02-28T12:24:31;4.20;;;2.53;;
20069;SDS011;10195;50.868;4.382;2023-02-28T12:27:07;4.23;;;2.90;;
20069;SDS011;10195;50.868;4.382;2023-02-28T12:29:43;5.00;;;2.67;;
20069;SDS011;10195;50.868;4.382;2023-02-28T12:34:47;2.90;;;2.43;;
20069;SDS011;10195;50.868;4.382;2023-02-28T12:37:32;3.63;;;2.73;;
20069;SDS011;10195;50.868;4.382;2023-02-28T12:40:06;4.70;;;2.20;;
20069;SDS011;10195;50.868;4.382;2023-02-28T12:42:42;2.80;;;2.30;;
20069;SDS011;10195;50.868;4.382;2023-02-28T12:45:46;4.37;;;2.57;;
20069;SDS011;10195;50.868;4.382;2023-02-28T12:48:27;4.03;;;2.30;;
20069;SDS011;10195;50.868;4.382;2023-02-28T12:51:02;4.03;;;2.43;;
20069;SDS011;10195;50.868;4.382;2023-02-28T12:58:58;3.83;;;2.60;;
20069;SDS011;10195;50.868;4.382;2023-02-28T13:10:05;3.37;;;2.30;;
20069;SDS011;10195;50.868;4.382;2023-02-28T13:12:32;2.33;;;1.90;;
20069;SDS011;10195;50.868;4.382;2023-02-28T13:15:16;2.87;;;2.03;;
20069;SDS011;10195;50.868;4.382;2023-02-28T13:17:55;4.23;;;2.20;;
20069;SDS011;10195;50.868;4.382;2023-02-28T13:20:24;3.20;;;2.33;;
20069;SDS011;10195;50.868;4.382;2023-02-28T13:22:52;4.27;;;2.60;;
20069;SDS011;10195;50.868;4.382;2023-02-28T13:27:48;4.07;;;2.00;;
20069;SDS011;10195;50.868;4.382;2023-02-28T13:33:26;5.13;;;2.40;;
20069;SDS011;10195;50.868;4.382;2023-02-28T13:46:28;6.67;;;3.00;;
20069;SDS011;10195;50.868;4.382;2023-02-28T13:48:54;8.53;;;2.70;;
20069;SDS011;10195;50.868;4.382;2023-02-28T13:57:11;5.90;;;2.50;;
20069;SDS011;10195;50.868;4.382;2023-02-28T13:59:58;7.43;;;2.57;;
20069;SDS011;10195;50.868;4.382;2023-02-28T14:05:35;2.70;;;2.37;;
20069;SDS011;10195;50.868;4.382;2023-02-28T14:08:07;3.13;;;2.40;;
20069;SDS011;10195;50.868;4.382;2023-02-28T14:10:46;8.53;;;2.80;;
20069;SDS011;10195;50.868;4.382;2023-02-28T14:13:36;5.10;;;2.97;;
20069;SDS011;10195;50.868;4.382;2023-02-28T14:16:13;7.23;;;2.90;;
20069;SDS011;10195;50.868;4.382;2023-02-28T14:18:41;8.90;;;2.53;;
20069;SDS011;10195;50.868;4.382;2023-02-28T14:21:24;5.17;;;3.00;;
20069;SDS011;10195;50.868;4.382;2023-02-28T14:24:10;3.77;;;2.57;;
20069;SDS011;10195;50.868;4.382;2023-02-28T14:30:17;3.87;;;2.57;;
20069;SDS011;10195;50.868;4.382;2023-02-28T14:37:54;3.73;;;2.43;;
20069;SDS011;10195;50.868;4.382;2023-02-28T14:42:58;4.60;;;2.63;;
20069;SDS011;10195;50.868;4.382;2023-02-28T14:45:29;5.43;;;2.60;;
20069;SDS011;10195;50.868;4.382;2023-02-28T14:47:57;4.83;;;3.30;;
20069;SDS011;10195;50.868;4.382;2023-02-28T14:50:27;5.53;;;3.07;;
20069;SDS011;10195;50.868;4.382;2023-02-28T14:52:59;2.97;;;2.40;;
20069;SDS011;10195;50.868;4.382;2023-02-28T14:55:28;3.83;;;2.40;;
20069;SDS011;10195;50.868;4.382;2023-02-28T14:58:01;3.00;;;2.50;;
20069;SDS011;10195;50.868;4.382;2023-02-28T15:00:35;6.67;;;2.97;;
20069;SDS011;10195;50.868;4.382;2023-02-28T15:03:17;4.27;;;2.93;;
20069;SDS011;10195;50.868;4.382;2023-02-28T15:05:55;4.37;;;3.07;;
20069;SDS011;10195;50.868;4.382;2023-02-28T15:08:29;8.53;;;2.93;;
20069;SDS011;10195;50.868;4.382;2023-02-28T15:11:33;4.97;;;3.07;;
20069;SDS011;10195;50.868;4.382;2023-02-28T15:13:52;3.83;;;3.00;;
20069;SDS011;10195;50.868;4.382;2023-02-28T15:16:34;5.67;;;2.80;;
20069;SDS011;10195;50.868;4.382;2023-02-28T15:21:46;2.80;;;2.50;;
20069;SDS011;10195;50.868;4.382;2023-02-28T15:24:17;5.40;;;3.17;;
20069;SDS011;10195;50.868;4.382;2023-02-28T15:26:55;4.80;;;2.90;;
20069;SDS011;10195;50.868;4.382;2023-02-28T15:29:24;3.63;;;3.07;;
20069;SDS011;10195;50.868;4.382;2023-02-28T15:32:05;4.43;;;3.10;;
20069;SDS011;10195;50.868;4.382;2023-02-28T15:34:36;4.53;;;3.20;;
20069;SDS011;10195;50.868;4.382;2023-02-28T15:39:52;6.43;;;3.53;;
20069;SDS011;10195;50.868;4.382;2023-02-28T15:42:20;5.70;;;3.27;;
20069;SDS011;10195;50.868;4.382;2023-02-28T15:44:48;6.43;;;3.20;;
20069;SDS011;10195;50.868;4.382;2023-02-28T15:50:06;4.70;;;3.50;;
20069;SDS011;10195;50.868;4.382;2023-02-28T15:52:42;8.40;;;3.33;;
20069;SDS011;10195;50.868;4.382;2023-02-28T15:57:54;3.43;;;3.10;;
20069;SDS011;10195;50.868;4.382;2023-02-28T16:00:24;5.60;;;3.00;;
20069;SDS011;10195;50.868;4.382;2023-02-28T16:02:52;9.33;;;2.90;;
20069;SDS011;10195;50.868;4.382;2023-02-28T16:05:25;4.27;;;2.80;;
20069;SDS011;10195;50.868;4.382;2023-02-28T16:08:13;6.77;;;3.30;;
20069;SDS011;10195;50.868;4.382;2023-02-28T16:10:40;3.20;;;2.70;;
20069;SDS011;10195;50.868;4.382;2023-02-28T16:13:05;4.03;;;3.10;;
20069;SDS011;10195;50.868;4.382;2023-02-28T16:15:34;4.90;;;2.90;;
20069;SDS011;10195;50.868;4.382;2023-02-28T16:18:07;5.37;;;3.20;;
20069;SDS011;10195;50.868;4.382;2023-02-28T16:20:36;6.00;;;2.90;;
20069;SDS011;10195;50.868;4.382;2023-02-28T16:23:01;6.90;;;3.40;;
20069;SDS011;10195;50.868;4.382;2023-02-28T16:25:38;4.67;;;3.40;;
20069;SDS011;10195;50.868;4.382;2023-02-28T16:28:07;4.33;;;3.00;;
20069;SDS011;10195;50.868;4.382;2023-02-28T16:30:45;5.00;;;3.10;;
20069;SDS011;10195;50.868;4.382;2023-02-28T16:33:11;25.47;;;3.30;;
20069;SDS011;10195;50.868;4.382;2023-02-28T16:35:37;3.83;;;3.20;;
20069;SDS011;10195;50.868;4.382;2023-02-28T16:38:02;4.20;;;2.87;;
20069;SDS011;10195;50.868;4.382;2023-02-28T16:40:28;4.87;;;3.17;;
20069;SDS011;10195;50.868;4.382;2023-02-28T16:42:59;4.10;;;3.17;;
20069;SDS011;10195;50.868;4.382;2023-02-28T16:45:28;4.83;;;3.10;;
20069;SDS011;10195;50.868;4.382;2023-02-28T16:47:54;6.77;;;2.90;;
20069;SDS011;10195;50.868;4.382;2023-02-28T16:50:22;4.60;;;2.87;;
20069;SDS011;10195;50.868;4.382;2023-02-28T16:52:49;4.37;;;3.17;;
20069;SDS011;10195;50.868;4.382;2023-02-28T16:55:17;4.83;;;3.47;;
20069;SDS011;10195;50.868;4.382;2023-02-28T16:57:43;3.87;;;2.83;;
20069;SDS011;10195;50.868;4.382;2023-02-28T17:00:13;7.43;;;3.10;;
20069;SDS011;10195;50.868;4.382;2023-02-28T17:02:39;4.57;;;3.23;;
20069;SDS011;10195;50.868;4.382;2023-02-28T17:05:05;5.80;;;3.00;;
20069;SDS011;10195;50.868;4.382;2023-02-28T17:07:31;5.50;;;3.20;;
20069;SDS011;10195;50.868;4.382;2023-02-28T17:09:57;6.33;;;3.33;;
20069;SDS011;10195;50.868;4.382;2023-02-28T17:12:22;15.57;;;2.90;;
20069;SDS011;10195;50.868;4.382;2023-02-28T17:14:48;5.03;;;3.03;;
20069;SDS011;10195;50.868;4.382;2023-02-28T17:17:15;3.63;;;2.87;;
20069;SDS011;10195;50.868;4.382;2023-02-28T17:19:44;5.00;;;2.60;;
20069;SDS011;10195;50.868;4.382;2023-02-28T17:22:10;6.23;;;3.27;;